Dunnell, MN (56127)

11:32 PM CDT on June 25, 2017 (GMT -0500)
KC0NKL - Elm Creek Township | | Change Station

Elev 1322 ft 43.68 °N, 94.79 °W | Updated 2 seconds ago

Rain
Rain
54.1 °F
Feels Like 54.1 °F
N
0.0
Wind Variable Wind from SSE
Gusts 0.0 mph

Today
High -- | Low -- °F
--% Chance of Precip.
Yesterday
High -- | Low -- °F
Precip. -- in
Pressure 30.17 in
Visibility 10.0 miles
Clouds Few 4400 ft
Mostly Cloudy 7500 ft
Overcast 12000 ft
Dew Point 12 °F
Humidity 18%
Rainfall 0.00 in
Snow Depth Not available.
5:39 AM 9:04 PM
Waxing Crescent, 6% visible
METAR KEST 260352Z AUTO 25005KT 10SM FEW044 BKN075 OVC120 13/11 A3017 RMK AO2 RAE44 SLP216 P0000 T01280106
Pressure 30.17 in
Visibility 10.0 miles
Clouds Few 4400 ft
Mostly Cloudy 7500 ft
Overcast 12000 ft
Dew Point 12 °F
Humidity 18%
Rainfall 0.00 in
Snow Depth Not available.
5:39 AM 9:04 PM
Waxing Crescent, 6% visible
METAR KEST 260352Z AUTO 25005KT 10SM FEW044 BKN075 OVC120 13/11 A3017 RMK AO2 RAE44 SLP216 P0000 T01280106

Get Severe Weather Alerts

Thanks for signing up!

Be on the lookout for a verification email in your inbox.

You'll start receiving the daily forecast at 6 AM.

×

10-Day Weather Forecast

Almanac

Astronomy

Jun. 25, 2017 Rise Set
Actual Time
Civil Twilight
Nautical Twilight
Astronomical Twilight
Moon
Length of Visible Light
Length of Day
Tomorrow will be .
, % of the Moon is Illuminated

Today's Extremes

State Highs State Lows

Community

WunderPhotos

Category 6

Welcome to Category 6. This is the collective home for Weather Underground's featured writeups by Dr. Jeff Masters (right), Bob Henson (left), Chris Burt, and other regular contributors.

Nearby

Air Quality

  Air Quality AQ Index Pollutant
Not available.

Snow Depth

Station Depth Elevation

Earthquake Activity

City Distance Mag. Time & Date
Minimum magnitude displayed is 2.5.

Coastal Water Temperatures

Place Temperature

Stations

Nearby Weather Stations

Station Location Temp. Windchill Dew Point Humidity Wind Precip. Elev Updated Type
                   

Watches & Warnings

There are currently no watches in effect.